Time;durP1;ratioP1;P1;durP2;ratioP2;P2;SDS_P1;SDS_P2;PMS_P1;PMS_P2;Temp;Humidity;BMP_temperature;BMP_pressure;BME280_temperature;BME280_humidity;BME280_pressure;Samples;Min_cycle;Max_cycle;Signal;HPM_P1;HPM_P2
2021/03/07 00:00:14;;;;;;;6.28;2.88;;;1.80;98.90;;;;;;5093828;28;20032;-67
2021/03/07 00:02:40;;;;;;;9.82;2.60;;;1.90;99.00;;;;;;5099610;28;20040;-67
2021/03/07 00:05:08;;;;;;;4.10;2.13;;;1.80;99.30;;;;;;5102618;28;20080;-67
2021/03/07 00:07:34;;;;;;;6.45;2.50;;;1.90;99.30;;;;;;5099707;28;20062;-67
2021/03/07 00:10:00;;;;;;;11.40;2.78;;;1.90;99.10;;;;;;5101974;28;20459;-67
2021/03/07 00:12:26;;;;;;;6.10;2.17;;;1.80;98.90;;;;;;5099082;28;20047;-67
2021/03/07 00:14:52;;;;;;;7.57;2.78;;;1.90;99.40;;;;;;5110084;28;20035;-67
2021/03/07 00:17:18;;;;;;;8.75;3.15;;;1.90;99.60;;;;;;5110747;28;20689;-67
2021/03/07 00:19:43;;;;;;;6.38;2.28;;;1.90;99.80;;;;;;5097159;28;20121;-67
2021/03/07 00:22:09;;;;;;;7.60;2.75;;;1.90;99.90;;;;;;5099665;28;20497;-67
2021/03/07 00:24:35;;;;;;;10.50;2.65;;;2.00;99.90;;;;;;5098588;28;20043;-67
2021/03/07 00:27:01;;;;;;;8.57;3.22;;;2.00;99.90;;;;;;5101716;28;20473;-67
2021/03/07 00:29:28;;;;;;;6.43;2.78;;;1.90;99.90;;;;;;5100220;28;20528;-67
2021/03/07 00:31:53;;;;;;;9.20;4.03;;;2.00;99.90;;;;;;5100475;28;20035;-67
2021/03/07 00:34:19;;;;;;;9.40;2.75;;;2.10;99.90;;;;;;5106701;28;20057;-67
2021/03/07 00:36:45;;;;;;;9.40;2.90;;;2.10;99.90;;;;;;5107627;28;20041;-67
2021/03/07 00:39:11;;;;;;;8.23;2.47;;;2.10;99.90;;;;;;5110429;28;20032;-67
2021/03/07 00:41:37;;;;;;;5.15;2.17;;;2.10;99.90;;;;;;5106467;28;20110;-67
2021/03/07 00:44:08;;;;;;;7.13;3.00;;;2.20;99.90;;;;;;5096873;28;20536;-67
2021/03/07 00:46:35;;;;;;;7.65;3.22;;;2.20;99.90;;;;;;5101183;28;20128;-67
2021/03/07 00:49:01;;;;;;;8.20;2.67;;;2.10;99.90;;;;;;5101702;28;20044;-67
2021/03/07 00:51:26;;;;;;;10.82;2.70;;;2.00;99.90;;;;;;5109186;28;20511;-67
2021/03/07 00:53:52;;;;;;;8.25;2.70;;;2.10;99.90;;;;;;5110098;28;20085;-67
2021/03/07 00:56:18;;;;;;;7.18;2.65;;;2.00;99.90;;;;;;5111114;28;20099;-67
2021/03/07 00:58:43;;;;;;;7.18;2.72;;;2.10;99.90;;;;;;5110078;28;20118;-67
2021/03/07 01:01:09;;;;;;;5.22;2.55;;;2.10;99.90;;;;;;5110965;28;20061;-67
2021/03/07 01:03:35;;;;;;;5.97;2.40;;;2.10;99.90;;;;;;5111499;28;20453;-67
2021/03/07 01:06:01;;;;;;;4.40;2.53;;;2.10;99.90;;;;;;5110670;28;20044;-67
2021/03/07 01:08:27;;;;;;;8.48;3.08;;;2.10;99.90;;;;;;5101818;28;20195;-67
2021/03/07 01:10:53;;;;;;;6.72;2.72;;;2.20;99.90;;;;;;5098335;28;20036;-67
2021/03/07 01:13:21;;;;;;;5.45;2.70;;;2.20;99.90;;;;;;5099326;28;20040;-67
2021/03/07 01:15:46;;;;;;;5.40;2.50;;;2.20;99.90;;;;;;5099642;28;20032;-67
2021/03/07 01:18:12;;;;;;;3.83;2.10;;;2.20;99.90;;;;;;5097792;28;20036;-67
2021/03/07 01:20:43;;;;;;;7.00;2.47;;;2.10;99.90;;;;;;5101070;28;20039;-67
2021/03/07 01:23:09;;;;;;;4.95;2.00;;;2.10;99.90;;;;;;5100778;28;22301;-67
2021/03/07 01:25:35;;;;;;;4.68;2.22;;;2.00;99.90;;;;;;5099317;28;20035;-67
2021/03/07 01:28:03;;;;;;;5.88;2.40;;;2.00;99.90;;;;;;5096657;28;20137;-67
2021/03/07 01:30:31;;;;;;;5.88;2.22;;;2.00;99.90;;;;;;5098684;28;20089;-67
2021/03/07 01:32:57;;;;;;;7.82;2.40;;;2.00;99.90;;;;;;5085207;28;20101;-67
2021/03/07 01:35:23;;;;;;;9.10;2.35;;;2.00;99.90;;;;;;5101776;28;20035;-67
2021/03/07 01:37:49;;;;;;;9.88;2.67;;;2.00;99.90;;;;;;5096191;28;20069;-67
2021/03/07 01:40:19;;;;;;;10.50;2.15;;;2.00;99.90;;;;;;5099999;28;20056;-67
2021/03/07 01:42:49;;;;;;;5.68;2.33;;;2.00;99.90;;;;;;5098235;28;20444;-67
2021/03/07 01:45:23;;;;;;;5.70;2.20;;;2.00;99.90;;;;;;5100153;28;20524;-67
2021/03/07 01:47:51;;;;;;;8.02;2.35;;;2.00;99.70;;;;;;5108496;28;20046;-67
2021/03/07 01:50:21;;;;;;;8.25;2.60;;;1.90;99.80;;;;;;5109340;28;20040;-67
2021/03/07 01:52:48;;;;;;;6.75;2.22;;;1.90;99.70;;;;;;5110267;28;20119;-67
2021/03/07 01:55:16;;;;;;;6.63;2.65;;;1.80;99.70;;;;;;5098943;28;21535;-67
2021/03/07 01:57:45;;;;;;;4.53;1.92;;;1.80;99.70;;;;;;5098459;28;20731;-67
2021/03/07 02:00:12;;;;;;;6.30;2.03;;;1.80;99.70;;;;;;5097437;28;20422;-67
2021/03/07 02:02:39;;;;;;;5.47;2.17;;;1.70;99.70;;;;;;5099846;28;20043;-67
2021/03/07 02:05:15;;;;;;;6.60;2.60;;;1.70;99.60;;;;;;5101194;28;20034;-67
2021/03/07 02:07:42;;;;;;;4.40;2.28;;;1.70;99.70;;;;;;5099931;28;20122;-67
2021/03/07 02:10:11;;;;;;;5.45;2.40;;;1.70;99.60;;;;;;5098197;28;20111;-67
2021/03/07 02:12:38;;;;;;;6.88;2.72;;;1.60;99.70;;;;;;5098526;28;20054;-67
2021/03/07 02:15:10;;;;;;;7.68;2.75;;;1.60;99.80;;;;;;5096402;28;20036;-67
2021/03/07 02:17:37;;;;;;;5.50;2.25;;;1.50;99.90;;;;;;5097841;28;20039;-67
2021/03/07 02:20:06;;;;;;;13.43;2.72;;;1.50;99.80;;;;;;5099427;28;20052;-67
2021/03/07 02:22:39;;;;;;;8.32;2.65;;;1.50;99.80;;;;;;5105950;28;20055;-67
2021/03/07 02:25:11;;;;;;;8.00;2.40;;;1.40;99.80;;;;;;5106811;28;20138;-67
2021/03/07 02:27:37;;;;;;;5.32;2.70;;;1.40;99.90;;;;;;5102148;28;21048;-67
2021/03/07 02:30:07;;;;;;;6.90;2.78;;;1.30;99.90;;;;;;5101701;28;20504;-67
2021/03/07 02:32:38;;;;;;;5.35;2.78;;;1.30;99.90;;;;;;5096791;28;20367;-67
2021/03/07 02:35:07;;;;;;;9.50;3.00;;;1.50;99.90;;;;;;5098701;28;21372;-67
2021/03/07 02:37:35;;;;;;;6.63;2.45;;;1.30;99.90;;;;;;5081281;28;20047;-67
2021/03/07 02:40:02;;;;;;;7.88;2.55;;;1.30;99.90;;;;;;5101696;28;20383;-67
2021/03/07 02:42:31;;;;;;;7.07;2.78;;;1.20;99.90;;;;;;5084290;28;20062;-67
2021/03/07 02:45:00;;;;;;;6.57;2.78;;;1.20;99.90;;;;;;5104979;28;20036;-67
2021/03/07 02:47:30;;;;;;;4.68;2.95;;;1.30;99.90;;;;;;5105875;28;20054;-67
2021/03/07 02:50:00;;;;;;;4.88;3.13;;;1.20;99.90;;;;;;5102975;28;20057;-67
2021/03/07 02:52:25;;;;;;;3.60;2.47;;;1.20;99.90;;;;;;5102282;28;20047;-67
2021/03/07 02:54:52;;;;;;;7.07;3.40;;;1.30;99.90;;;;;;5104413;28;20046;-67
2021/03/07 02:57:23;;;;;;;8.70;3.28;;;1.30;99.90;;;;;;5086479;28;20110;-67
2021/03/07 02:59:51;;;;;;;5.45;3.10;;;1.30;99.90;;;;;;5106591;28;20113;-67
2021/03/07 03:02:19;;;;;;;5.22;2.50;;;1.30;99.90;;;;;;5102365;28;20036;-66
2021/03/07 03:04:46;;;;;;;6.78;3.35;;;1.30;99.90;;;;;;5103801;28;20464;-66
2021/03/07 03:07:13;;;;;;;8.48;2.85;;;1.30;99.90;;;;;;5109656;28;20027;-67
2021/03/07 03:09:38;;;;;;;9.57;3.20;;;1.40;99.90;;;;;;5089039;28;20092;-67
2021/03/07 03:12:05;;;;;;;7.28;2.97;;;1.30;99.90;;;;;;5107523;28;20044;-66
2021/03/07 03:14:32;;;;;;;7.00;3.00;;;1.30;99.90;;;;;;5107699;28;20032;-66
2021/03/07 03:16:59;;;;;;;4.55;2.90;;;1.30;99.90;;;;;;5110976;28;20096;-67
2021/03/07 03:19:28;;;;;;;7.90;2.92;;;1.30;99.90;;;;;;5106596;28;20130;-67
2021/03/07 03:21:54;;;;;;;6.45;2.63;;;1.30;99.90;;;;;;5106371;28;20089;-67
2021/03/07 03:24:21;;;;;;;8.32;3.00;;;1.40;99.90;;;;;;5107478;28;20028;-67
2021/03/07 03:26:47;;;;;;;9.40;3.28;;;1.40;99.90;;;;;;5106639;28;20056;-67
2021/03/07 03:29:13;;;;;;;5.40;2.40;;;1.40;99.90;;;;;;5106581;28;20058;-67
2021/03/07 03:31:39;;;;;;;5.47;2.83;;;1.60;99.90;;;;;;5108620;28;20040;-67
2021/03/07 03:34:07;;;;;;;5.78;2.90;;;1.40;99.90;;;;;;5107998;28;20053;-67
2021/03/07 03:36:34;;;;;;;6.60;2.45;;;1.40;99.90;;;;;;5104644;28;20044;-67
2021/03/07 03:39:10;;;;;;;5.43;2.35;;;1.40;99.90;;;;;;5106882;28;20127;-67
2021/03/07 03:41:36;;;;;;;5.25;2.35;;;1.50;99.90;;;;;;5106812;28;20060;-67
2021/03/07 03:44:07;;;;;;;5.53;2.40;;;1.50;99.90;;;;;;5109016;28;20097;-67
2021/03/07 03:46:38;;;;;;;6.97;2.17;;;1.50;99.90;;;;;;5108476;28;20050;-67
2021/03/07 03:49:28;;;;;;;5.50;2.42;;;1.50;99.90;;;;;;5107858;28;20044;-67
2021/03/07 03:52:00;;;;;;;7.15;2.50;;;1.50;99.90;;;;;;5087810;28;20046;-67
2021/03/07 03:54:29;;;;;;;9.10;2.55;;;1.50;99.90;;;;;;5107570;28;20038;-67
2021/03/07 03:56:58;;;;;;;6.85;2.22;;;1.60;99.90;;;;;;5106555;28;21007;-67
2021/03/07 03:59:27;;;;;;;8.25;2.35;;;1.70;99.90;;;;;;5107904;28;20054;-66
2021/03/07 04:01:53;;;;;;;6.18;2.05;;;1.60;99.90;;;;;;5108801;28;20387;-67
2021/03/07 04:04:20;;;;;;;5.57;2.17;;;1.60;99.90;;;;;;5107991;28;20122;-67
2021/03/07 04:06:46;;;;;;;6.53;2.40;;;1.70;99.90;;;;;;5105845;28;20039;-67
2021/03/07 04:09:13;;;;;;;4.93;2.20;;;1.70;99.90;;;;;;5106335;28;20401;-67
2021/03/07 04:11:38;;;;;;;6.45;2.38;;;1.70;99.90;;;;;;5103429;28;20042;-67
2021/03/07 04:14:05;;;;;;;6.18;2.22;;;1.60;99.90;;;;;;5105508;28;20028;-67
2021/03/07 04:16:31;;;;;;;4.15;2.00;;;1.60;99.90;;;;;;5108022;28;20165;-67
2021/03/07 04:18:58;;;;;;;5.60;2.03;;;1.70;99.90;;;;;;5109346;28;20473;-67
2021/03/07 04:21:24;;;;;;;4.68;2.10;;;1.80;99.90;;;;;;5105649;28;20040;-67
2021/03/07 04:23:50;;;;;;;4.60;2.25;;;1.80;99.90;;;;;;5086219;28;20448;-67
2021/03/07 04:26:17;;;;;;;7.38;2.78;;;1.80;99.90;;;;;;5107787;28;20040;-67
2021/03/07 04:28:44;;;;;;;6.85;2.22;;;1.70;99.90;;;;;;5108160;28;20031;-67
2021/03/07 04:31:10;;;;;;;5.30;2.30;;;1.90;99.90;;;;;;5107200;28;20474;-67
2021/03/07 04:33:36;;;;;;;5.10;1.65;;;1.80;99.90;;;;;;5106162;28;20854;-67
2021/03/07 04:36:04;;;;;;;6.13;2.35;;;1.80;99.90;;;;;;5109076;28;20032;-67
2021/03/07 04:38:32;;;;;;;7.22;1.90;;;1.80;99.90;;;;;;5102899;28;20035;-67
2021/03/07 04:40:58;;;;;;;5.25;2.28;;;1.80;99.90;;;;;;5105989;28;20039;-67
2021/03/07 04:43:24;;;;;;;7.28;2.00;;;1.80;99.90;;;;;;5107061;28;20036;-67
2021/03/07 04:45:50;;;;;;;3.30;1.58;;;1.90;99.90;;;;;;5106269;28;20043;-67
2021/03/07 04:48:16;;;;;;;6.43;2.08;;;1.80;99.90;;;;;;5107351;28;20062;-67
2021/03/07 04:50:41;;;;;;;6.85;2.35;;;1.90;99.90;;;;;;5107303;28;20063;-67
2021/03/07 04:53:07;;;;;;;5.93;2.47;;;2.00;99.90;;;;;;5105198;28;20111;-67
2021/03/07 04:55:33;;;;;;;5.07;1.98;;;1.90;99.90;;;;;;5106101;28;20058;-67
2021/03/07 04:57:58;;;;;;;3.63;1.75;;;1.90;99.90;;;;;;5104364;28;20437;-67
2021/03/07 05:00:24;;;;;;;4.30;1.50;;;1.90;99.90;;;;;;5107049;28;20074;-67
2021/03/07 05:02:50;;;;;;;3.58;1.40;;;1.90;99.90;;;;;;5107892;27;20039;-67
2021/03/07 05:05:16;;;;;;;5.45;1.75;;;1.90;99.90;;;;;;5111045;28;20104;-67
2021/03/07 05:07:42;;;;;;;5.25;1.55;;;2.00;99.90;;;;;;5111241;28;20454;-67
2021/03/07 05:10:08;;;;;;;3.67;1.40;;;2.00;99.90;;;;;;5110363;28;20044;-67
2021/03/07 05:12:34;;;;;;;3.35;1.40;;;2.00;99.90;;;;;;5110923;28;20047;-67
2021/03/07 05:15:00;;;;;;;5.53;1.80;;;2.20;99.90;;;;;;5107915;28;20539;-67
2021/03/07 05:17:27;;;;;;;3.72;2.47;;;2.10;99.90;;;;;;5110433;28;20089;-67
2021/03/07 05:19:53;;;;;;;4.38;1.70;;;2.10;99.90;;;;;;5110150;28;20059;-67
2021/03/07 05:22:18;;;;;;;3.97;1.13;;;2.10;99.90;;;;;;5110287;28;20023;-67
2021/03/07 05:24:45;;;;;;;3.22;1.50;;;2.10;99.90;;;;;;5109984;28;20063;-67
2021/03/07 05:27:10;;;;;;;4.28;1.35;;;2.10;99.90;;;;;;5109977;28;20039;-67
2021/03/07 05:29:37;;;;;;;4.88;1.33;;;2.10;99.90;;;;;;5109665;28;20036;-67
2021/03/07 05:32:04;;;;;;;7.53;1.50;;;2.10;99.90;;;;;;5110126;28;20118;-67
2021/03/07 05:34:30;;;;;;;4.63;1.60;;;2.20;99.90;;;;;;5110532;28;20032;-67
2021/03/07 05:36:55;;;;;;;5.60;1.38;;;2.20;99.90;;;;;;5109635;28;20532;-67
2021/03/07 05:39:23;;;;;;;4.78;1.08;;;2.10;99.90;;;;;;5107670;28;20078;-67
2021/03/07 05:41:48;;;;;;;5.18;1.05;;;2.30;99.90;;;;;;5109502;28;20047;-67
2021/03/07 05:44:14;;;;;;;4.05;1.20;;;2.20;99.90;;;;;;5110080;28;20035;-67
2021/03/07 05:46:40;;;;;;;5.75;1.23;;;2.20;99.90;;;;;;5107606;28;20043;-67
2021/03/07 05:49:07;;;;;;;8.57;1.50;;;2.20;99.90;;;;;;5110249;28;20481;-67
2021/03/07 05:51:34;;;;;;;4.05;1.00;;;2.20;99.90;;;;;;5107105;28;20106;-67
2021/03/07 05:54:01;;;;;;;4.40;1.20;;;2.20;99.90;;;;;;5092191;28;20513;-67
2021/03/07 05:56:27;;;;;;;4.28;1.20;;;2.20;99.90;;;;;;5109365;28;20040;-67
2021/03/07 05:58:55;;;;;;;5.55;1.10;;;2.20;99.90;;;;;;5109494;28;20035;-67
2021/03/07 06:01:22;;;;;;;4.75;1.55;;;2.20;99.90;;;;;;5109154;28;20108;-67
2021/03/07 06:03:48;;;;;;;5.05;1.00;;;2.30;99.90;;;;;;5108766;28;20115;-67
2021/03/07 06:06:14;;;;;;;4.07;1.20;;;2.30;99.90;;;;;;5106834;28;20035;-67
2021/03/07 06:08:40;;;;;;;6.95;1.13;;;2.40;99.90;;;;;;5108410;28;20109;-67
2021/03/07 06:11:05;;;;;;;3.17;1.00;;;2.30;99.90;;;;;;5109436;28;20040;-67
2021/03/07 06:13:43;;;;;;;3.55;1.02;;;2.30;99.90;;;;;;5107404;28;20459;-67
2021/03/07 06:16:13;;;;;;;2.20;0.90;;;2.40;99.90;;;;;;5109191;28;20554;-67
2021/03/07 06:18:43;;;;;;;3.00;1.00;;;2.40;99.90;;;;;;5108384;28;20560;-67
2021/03/07 06:21:32;;;;;;;5.55;1.15;;;2.30;99.90;;;;;;5109832;28;20036;-67
2021/03/07 06:23:59;;;;;;;2.85;0.75;;;2.40;99.90;;;;;;5109560;28;20050;-67
2021/03/07 06:26:25;;;;;;;2.40;0.88;;;2.40;99.90;;;;;;5108885;28;20039;-67
2021/03/07 06:29:12;;;;;;;4.57;1.00;;;2.40;99.90;;;;;;5110110;28;20032;-67
2021/03/07 06:31:40;;;;;;;;;;;2.40;99.90;;;;;;5109321;28;20031;-67
2021/03/07 06:34:06;;;;;;;6.88;1.38;;;2.40;99.90;;;;;;5110517;28;19915;-67
2021/03/07 06:36:33;;;;;;;3.20;0.80;;;2.40;99.90;;;;;;5105648;28;20042;-67
2021/03/07 06:39:01;;;;;;;4.20;1.00;;;2.40;99.90;;;;;;5105693;28;20039;-67
2021/03/07 06:41:29;;;;;;;5.20;1.17;;;2.50;99.90;;;;;;5107145;28;20055;-67
2021/03/07 06:44:12;;;;;;;3.88;1.08;;;2.40;99.70;;;;;;5114283;28;20155;-67
2021/03/07 06:46:40;;;;;;;3.58;1.48;;;2.50;99.90;;;;;;5111060;28;20071;-67
2021/03/07 06:49:06;;;;;;;5.40;1.25;;;2.50;99.90;;;;;;5113985;28;20039;-67
2021/03/07 06:51:34;;;;;;;1.30;0.90;;;2.50;99.90;;;;;;5110384;28;20035;-67
2021/03/07 06:54:19;;;;;;;1.95;0.88;;;2.50;99.90;;;;;;5112844;28;20490;-67
2021/03/07 06:56:50;;;;;;;10.87;1.40;;;2.50;99.90;;;;;;5109975;28;20117;-67
2021/03/07 06:59:19;;;;;;;3.75;1.20;;;2.50;99.90;;;;;;5112124;28;20040;-67
2021/03/07 07:01:47;;;;;;;3.65;0.75;;;2.50;99.90;;;;;;5113053;27;20367;-67
2021/03/07 07:04:14;;;;;;;3.13;1.00;;;2.60;99.90;;;;;;5113333;28;20036;-67
2021/03/07 07:06:42;;;;;;;1.90;0.70;;;2.70;99.90;;;;;;5109292;28;20028;-67
2021/03/07 07:09:09;;;;;;;3.10;1.42;;;2.60;99.90;;;;;;5108457;28;20044;-67
2021/03/07 07:11:42;;;;;;;5.20;1.02;;;2.60;99.90;;;;;;5108132;28;20169;-67
2021/03/07 07:14:09;;;;;;;4.13;1.17;;;2.60;99.80;;;;;;5110188;27;20032;-67
2021/03/07 07:16:35;;;;;;;3.78;0.90;;;2.60;99.70;;;;;;5110223;28;20046;-67
2021/03/07 07:19:01;;;;;;;2.83;1.40;;;2.60;99.80;;;;;;5111422;28;20050;-67
2021/03/07 07:21:26;;;;;;;4.70;0.98;;;2.60;99.80;;;;;;5112069;28;20535;-67
2021/03/07 07:23:53;;;;;;;1.77;0.90;;;2.60;99.90;;;;;;5111084;28;20024;-67
2021/03/07 07:26:18;;;;;;;5.45;1.13;;;2.70;99.80;;;;;;5108506;27;20032;-67
2021/03/07 07:28:45;;;;;;;4.25;1.00;;;2.70;99.80;;;;;;5108843;27;20336;-67
2021/03/07 07:31:30;;;;;;;3.55;0.93;;;2.70;99.70;;;;;;5105301;28;20390;-67
2021/03/07 07:34:22;;;;;;;2.92;1.20;;;2.00;99.60;;;;;;5110091;27;20043;-67
2021/03/07 07:37:32;;;;;;;1.90;0.85;;;2.70;99.70;;;;;;5108944;28;20028;-67
2021/03/07 07:39:59;;;;;;;2.45;1.00;;;2.70;99.50;;;;;;5059747;28;20502;-67
2021/03/07 07:42:29;;;;;;;3.05;1.13;;;2.80;99.40;;;;;;5085769;28;20550;-67
2021/03/07 07:44:58;;;;;;;4.28;1.05;;;2.80;99.40;;;;;;5109704;28;20051;-67
2021/03/07 07:47:24;;;;;;;3.45;1.00;;;2.80;99.30;;;;;;5111120;28;20036;-67
2021/03/07 07:49:54;;;;;;;4.63;1.15;;;2.80;99.10;;;;;;5092124;28;20036;-66
2021/03/07 07:52:30;;;;;;;10.98;1.35;;;2.80;98.90;;;;;;5106833;28;20580;-67
2021/03/07 07:54:59;;;;;;;;;;;2.80;98.90;;;;;;5111545;28;20035;-67
2021/03/07 07:57:31;;;;;;;4.05;1.35;;;2.80;98.60;;;;;;5091368;28;19919;-66
2021/03/07 07:59:56;;;;;;;3.58;1.00;;;2.90;98.60;;;;;;5111862;28;20055;-67
2021/03/07 08:02:56;;;;;;;5.45;1.48;;;2.90;98.80;;;;;;5106578;28;20040;-67
2021/03/07 08:05:26;;;;;;;2.72;1.08;;;2.90;98.50;;;;;;5067414;28;20067;-66
2021/03/07 08:07:56;;;;;;;3.75;1.33;;;3.00;98.50;;;;;;5103570;27;20457;-68
2021/03/07 08:10:37;;;;;;;5.15;1.30;;;3.00;98.40;;;;;;5106776;27;20032;-66
2021/03/07 08:13:03;;;;;;;4.85;1.83;;;3.00;98.10;;;;;;5116616;27;20473;-67
2021/03/07 08:15:29;;;;;;;2.28;1.33;;;3.00;98.40;;;;;;5104730;28;20101;-67
2021/03/07 08:17:57;;;;;;;3.78;1.52;;;3.10;98.50;;;;;;5110380;28;20966;-67
2021/03/07 08:20:38;;;;;;;5.68;1.40;;;3.10;98.40;;;;;;5107377;28;20040;-67
2021/03/07 08:23:24;;;;;;;4.30;1.95;;;3.30;98.30;;;;;;5110870;28;20039;-67
2021/03/07 08:25:50;;;;;;;3.13;1.83;;;3.20;98.20;;;;;;5107453;28;20047;-67
2021/03/07 08:28:31;;;;;;;5.28;1.50;;;3.20;98.00;;;;;;5109087;28;20097;-67
2021/03/07 08:31:05;;;;;;;3.63;1.58;;;3.30;97.90;;;;;;5107943;28;20112;-67
2021/03/07 08:33:34;;;;;;;4.35;1.60;;;3.20;97.90;;;;;;5106250;28;20120;-67
2021/03/07 08:36:23;;;;;;;11.32;2.40;;;3.30;97.40;;;;;;5108182;28;20126;-67
2021/03/07 08:38:49;;;;;;;3.90;1.60;;;3.30;97.70;;;;;;5107988;28;20039;-67
2021/03/07 08:41:26;;;;;;;3.58;1.83;;;3.30;97.70;;;;;;5108809;28;20028;-67
2021/03/07 08:43:57;;;;;;;3.08;1.70;;;3.30;97.80;;;;;;5106017;28;20670;-67
2021/03/07 08:46:45;;;;;;;5.65;1.77;;;3.30;97.70;;;;;;5105440;28;20390;-67
2021/03/07 08:49:12;;;;;;;4.97;1.88;;;3.30;97.30;;;;;;5104972;28;20039;-67
2021/03/07 08:51:44;;;;;;;2.95;2.25;;;3.30;97.50;;;;;;5100636;27;20052;-67
2021/03/07 08:54:15;;;;;;;5.30;1.65;;;3.40;97.60;;;;;;5100897;28;20093;-67
2021/03/07 08:56:42;;;;;;;4.68;2.20;;;3.40;97.60;;;;;;5098391;28;20687;-67
2021/03/07 08:59:09;;;;;;;5.22;2.20;;;3.40;97.50;;;;;;5101141;28;20043;-67
2021/03/07 09:01:35;;;;;;;5.38;2.10;;;3.40;97.30;;;;;;5112040;27;20040;-67
2021/03/07 09:04:05;;;;;;;6.40;2.10;;;3.50;97.50;;;;;;5103061;28;20081;-67
2021/03/07 09:06:33;;;;;;;3.85;2.20;;;3.50;97.30;;;;;;5091783;28;20389;-67
2021/03/07 09:09:08;;;;;;;6.05;2.40;;;3.50;97.10;;;;;;5108833;28;20044;-67
2021/03/07 09:11:36;;;;;;;7.72;2.70;;;3.50;97.20;;;;;;5087042;28;20674;-67
2021/03/07 09:14:04;;;;;;;14.55;2.97;;;3.60;97.20;;;;;;5108478;28;20039;-66
2021/03/07 09:17:01;;;;;;;8.13;2.92;;;3.60;97.10;;;;;;5106838;28;20035;-67
2021/03/07 09:19:38;;;;;;;9.77;3.47;;;3.70;97.00;;;;;;5089663;28;20489;-67
2021/03/07 09:22:08;;;;;;;11.23;3.53;;;3.70;96.70;;;;;;5086702;28;20031;-66
2021/03/07 09:24:33;;;;;;;4.97;3.00;;;3.70;96.80;;;;;;5108984;28;20032;-67
2021/03/07 09:27:12;;;;;;;5.32;3.40;;;3.70;96.50;;;;;;5105482;28;20089;-67
2021/03/07 09:29:54;;;;;;;10.25;5.22;;;3.70;96.40;;;;;;5108722;28;20035;-67
2021/03/07 09:32:47;;;;;;;25.08;3.95;;;3.70;96.10;;;;;;5109626;28;20051;-67
2021/03/07 09:35:31;;;;;;;9.82;3.47;;;3.80;96.20;;;;;;5098726;28;20067;-67
2021/03/07 09:38:08;;;;;;;5.88;3.33;;;3.80;96.40;;;;;;5107069;28;20051;-67
2021/03/07 09:40:41;;;;;;;9.52;3.65;;;3.80;96.40;;;;;;5108231;28;20036;-67
2021/03/07 09:43:15;;;;;;;6.43;3.20;;;3.80;96.10;;;;;;5088465;28;20036;-67
2021/03/07 09:45:46;;;;;;;5.13;3.40;;;3.80;96.00;;;;;;5087159;28;20390;-67
2021/03/07 09:48:14;;;;;;;5.80;3.38;;;3.90;95.90;;;;;;5099550;28;20039;-67
2021/03/07 09:50:43;;;;;;;4.47;3.28;;;3.90;95.70;;;;;;5105877;28;21710;-67
2021/03/07 09:53:10;;;;;;;7.28;4.55;;;3.90;95.90;;;;;;5107365;28;20035;-67
2021/03/07 09:55:36;;;;;;;4.72;3.65;;;4.00;96.00;;;;;;5106230;28;20048;-67
2021/03/07 09:58:07;;;;;;;4.43;3.65;;;4.00;95.90;;;;;;5088570;28;20493;-67
2021/03/07 10:00:35;;;;;;;4.50;3.58;;;4.00;95.50;;;;;;5105704;28;20069;-67
2021/03/07 10:03:03;;;;;;;6.63;4.20;;;4.00;95.20;;;;;;5109177;28;20040;-67
2021/03/07 10:05:29;;;;;;;7.38;4.45;;;4.10;95.40;;;;;;5105730;28;20110;-67
2021/03/07 10:07:55;;;;;;;9.10;3.45;;;4.20;95.40;;;;;;5109151;28;20063;-67
2021/03/07 10:10:25;;;;;;;6.60;4.05;;;4.20;95.00;;;;;;5106883;28;20082;-67
2021/03/07 10:12:59;;;;;;;5.75;4.38;;;4.20;94.70;;;;;;5108344;28;20070;-67
2021/03/07 10:15:34;;;;;;;6.68;3.47;;;4.30;95.00;;;;;;5108766;28;20031;-67
2021/03/07 10:18:01;;;;;;;6.68;4.32;;;4.30;94.20;;;;;;5092870;28;20046;-67
2021/03/07 10:20:34;;;;;;;5.43;4.05;;;4.40;92.90;;;;;;5112589;28;20063;-67
2021/03/07 10:23:00;;;;;;;6.18;4.00;;;4.50;93.90;;;;;;5111199;28;20432;-67
2021/03/07 10:25:30;;;;;;;5.82;3.53;;;4.60;93.50;;;;;;5110030;28;20082;-67
2021/03/07 10:28:33;;;;;;;5.70;4.00;;;4.60;93.90;;;;;;5112236;28;20044;-67
2021/03/07 10:31:11;;;;;;;8.45;3.60;;;4.70;94.00;;;;;;5027769;28;20099;-67
2021/03/07 10:33:37;;;;;;;5.63;4.07;;;4.80;93.50;;;;;;5098749;28;20040;-67
2021/03/07 10:36:09;;;;;;;6.53;3.85;;;4.90;93.70;;;;;;5110658;28;20057;-67
2021/03/07 10:38:42;;;;;;;6.40;4.60;;;4.90;93.40;;;;;;5111047;28;20051;-67
2021/03/07 10:41:30;;;;;;;6.95;4.97;;;5.00;92.20;;;;;;5108557;28;20088;-67
2021/03/07 10:44:02;;;;;;;8.38;4.85;;;5.00;91.90;;;;;;5110673;28;20058;-67
2021/03/07 10:46:33;;;;;;;6.30;5.28;;;5.10;92.50;;;;;;5112109;28;20184;-69
2021/03/07 10:49:02;;;;;;;11.48;5.57;;;5.10;92.60;;;;;;5112257;28;20114;-67
2021/03/07 10:51:29;;;;;;;6.70;5.22;;;5.20;92.60;;;;;;5109841;28;20148;-65
2021/03/07 10:53:55;;;;;;;13.25;5.50;;;5.20;92.60;;;;;;5112043;28;20058;-66
2021/03/07 10:56:26;;;;;;;10.57;5.95;;;5.30;92.50;;;;;;5111428;28;20519;-67
2021/03/07 10:58:52;;;;;;;8.63;5.45;;;5.40;93.10;;;;;;5110569;28;20028;-65
2021/03/07 11:01:17;;;;;;;8.52;6.25;;;5.40;92.30;;;;;;5109841;28;20044;-68
2021/03/07 11:03:44;;;;;;;43.65;8.30;;;5.40;92.50;;;;;;5111508;28;20032;-68
2021/03/07 11:06:10;;;;;;;7.88;5.72;;;5.50;93.20;;;;;;5109129;28;20099;-68
2021/03/07 11:08:37;;;;;;;7.10;6.13;;;5.60;91.90;;;;;;5112159;28;20093;-69
2021/03/07 11:11:04;;;;;;;8.73;6.03;;;5.60;91.90;;;;;;5110409;28;20036;-70
2021/03/07 11:13:30;;;;;;;7.93;6.13;;;5.60;92.30;;;;;;5108749;28;20032;-68
2021/03/07 11:15:56;;;;;;;7.95;6.85;;;5.60;91.30;;;;;;5108671;28;20077;-67
2021/03/07 11:18:22;;;;;;;25.83;7.55;;;5.80;92.20;;;;;;5110749;28;20034;-67
2021/03/07 11:20:48;;;;;;;11.35;7.90;;;5.70;91.30;;;;;;5112202;28;20032;-67
2021/03/07 11:23:14;;;;;;;10.00;7.65;;;5.70;90.50;;;;;;5112017;28;20110;-67
2021/03/07 11:25:40;;;;;;;12.02;7.22;;;5.80;90.70;;;;;;5112135;28;20466;-67
2021/03/07 11:28:06;;;;;;;9.98;7.20;;;5.80;90.70;;;;;;5110353;27;20107;-67
2021/03/07 11:30:32;;;;;;;69.15;9.95;;;5.80;90.50;;;;;;5111433;28;20051;-67
2021/03/07 11:32:58;;;;;;;9.35;6.38;;;5.80;90.20;;;;;;5111295;28;20089;-67
2021/03/07 11:35:24;;;;;;;12.30;7.75;;;5.80;89.70;;;;;;5110129;28;20043;-65
2021/03/07 11:37:56;;;;;;;10.90;7.43;;;5.90;90.10;;;;;;5109992;28;20063;-67
2021/03/07 11:40:21;;;;;;;11.68;7.28;;;6.00;90.10;;;;;;5108839;28;20067;-65
2021/03/07 11:42:47;;;;;;;11.90;7.10;;;6.00;90.70;;;;;;5109812;28;20120;-65
2021/03/07 11:45:13;;;;;;;10.30;8.23;;;6.10;89.60;;;;;;5107873;28;20027;-65
2021/03/07 11:47:39;;;;;;;8.32;7.38;;;6.10;89.90;;;;;;5110686;28;20039;-65
2021/03/07 11:50:05;;;;;;;9.13;6.80;;;6.20;90.70;;;;;;5110755;28;20063;-65
2021/03/07 11:52:31;;;;;;;8.48;7.00;;;6.20;90.50;;;;;;5110128;28;20118;-66
2021/03/07 11:54:57;;;;;;;9.98;6.40;;;6.30;89.80;;;;;;5110117;28;20134;-67
2021/03/07 11:57:22;;;;;;;47.15;9.05;;;6.30;86.90;;;;;;5110025;28;20035;-66
2021/03/07 11:59:48;;;;;;;12.02;6.60;;;6.30;90.00;;;;;;5111295;28;20035;-67
2021/03/07 12:02:14;;;;;;;9.98;7.63;;;6.40;89.10;;;;;;5109401;28;20032;-67
2021/03/07 12:04:40;;;;;;;9.60;7.60;;;6.40;90.00;;;;;;5111291;28;20092;-67
2021/03/07 12:07:06;;;;;;;8.88;7.72;;;6.50;89.80;;;;;;5108895;28;20040;-65
2021/03/07 12:09:32;;;;;;;8.63;7.45;;;6.50;89.50;;;;;;5108405;28;20031;-66
2021/03/07 12:11:59;;;;;;;12.60;7.43;;;6.50;89.10;;;;;;5109859;28;20039;-66
2021/03/07 12:14:25;;;;;;;8.70;7.50;;;6.50;89.00;;;;;;5110461;28;20068;-65
2021/03/07 12:16:50;;;;;;;9.13;6.78;;;6.60;89.90;;;;;;5110938;28;20474;-66
2021/03/07 12:19:16;;;;;;;15.00;8.70;;;6.60;87.10;;;;;;5111084;28;20031;-65
2021/03/07 12:21:42;;;;;;;9.75;7.65;;;6.50;85.30;;;;;;5109114;28;20080;-65
2021/03/07 12:24:08;;;;;;;10.15;7.68;;;6.50;88.20;;;;;;5110616;28;20052;-65
2021/03/07 12:26:34;;;;;;;12.50;8.35;;;6.60;89.40;;;;;;5107178;28;20036;-66
2021/03/07 12:29:00;;;;;;;10.60;7.55;;;6.60;87.80;;;;;;5105006;28;20040;-66
2021/03/07 12:31:25;;;;;;;10.80;8.32;;;6.70;88.30;;;;;;5101342;28;20039;-65
2021/03/07 12:33:51;;;;;;;11.80;8.32;;;6.60;84.70;;;;;;5105813;28;20401;-65
2021/03/07 12:36:18;;;;;;;9.07;7.60;;;6.70;87.10;;;;;;5107941;28;20044;-65
2021/03/07 12:38:44;;;;;;;12.27;9.70;;;6.70;86.60;;;;;;5102098;28;20130;-65
2021/03/07 12:41:10;;;;;;;11.07;8.77;;;6.60;87.60;;;;;;5104622;28;20525;-65
2021/03/07 12:43:36;;;;;;;10.77;8.98;;;6.60;88.20;;;;;;5105404;28;20047;-65
2021/03/07 12:46:01;;;;;;;10.93;8.90;;;6.70;89.80;;;;;;5105932;28;20114;-65
2021/03/07 12:48:27;;;;;;;10.40;8.45;;;6.60;87.70;;;;;;5105727;28;20425;-66
2021/03/07 12:50:53;;;;;;;13.23;8.85;;;6.60;87.40;;;;;;5101758;28;20476;-65
2021/03/07 12:53:18;;;;;;;10.85;9.27;;;6.60;87.50;;;;;;5101585;28;20105;-65
2021/03/07 12:55:44;;;;;;;9.73;8.65;;;6.60;86.90;;;;;;5101254;28;20458;-65
2021/03/07 12:58:10;;;;;;;10.93;9.40;;;6.50;87.10;;;;;;5104486;28;20035;-65
2021/03/07 13:00:36;;;;;;;14.32;9.95;;;6.50;87.00;;;;;;5102857;28;20382;-66
2021/03/07 13:03:02;;;;;;;13.45;10.35;;;6.50;88.40;;;;;;5104070;28;20028;-65